Time;durP1;ratioP1;P1;durP2;ratioP2;P2;SDS_P1;SDS_P2;PMS_P1;PMS_P2;Temp;Humidity;BMP_temperature;BMP_pressure;BME280_temperature;BME280_humidity;BME280_pressure;Samples;Min_cycle;Max_cycle;Signal;HPM_P1;HPM_P2
2021/08/29 00:01:34;;;;;;;11.00;2.50;;;15.90;92.20;;;;;;5013965;28;20030;-75
2021/08/29 00:03:59;;;;;;;6.05;1.85;;;15.90;92.00;;;;;;5013888;28;20034;-75
2021/08/29 00:06:25;;;;;;;8.77;1.88;;;15.90;92.00;;;;;;5012554;28;20030;-75
2021/08/29 00:08:50;;;;;;;7.60;2.33;;;15.90;92.00;;;;;;5012476;28;20065;-77
2021/08/29 00:11:16;;;;;;;5.82;1.75;;;15.90;92.10;;;;;;5013875;28;20375;-77
2021/08/29 00:13:42;;;;;;;5.22;1.77;;;15.90;92.10;;;;;;5012696;28;20034;-77
2021/08/29 00:16:07;;;;;;;5.15;2.08;;;16.00;92.10;;;;;;5013635;28;20057;-77
2021/08/29 00:18:33;;;;;;;5.82;1.65;;;16.00;92.10;;;;;;5013615;28;20073;-77
2021/08/29 00:20:59;;;;;;;8.27;2.00;;;16.00;92.10;;;;;;5013233;28;20026;-78
2021/08/29 00:23:24;;;;;;;6.55;1.85;;;16.00;92.10;;;;;;5013754;28;20030;-78
2021/08/29 00:25:50;;;;;;;7.75;2.00;;;16.00;92.10;;;;;;5013616;28;20033;-77
2021/08/29 00:28:15;;;;;;;6.80;1.75;;;16.00;92.10;;;;;;5012394;28;20046;-78
2021/08/29 00:30:41;;;;;;;11.48;2.25;;;16.00;92.10;;;;;;5012395;28;20494;-77
2021/08/29 00:33:07;;;;;;;11.00;2.00;;;16.00;92.10;;;;;;5012257;28;20092;-76
2021/08/29 00:35:33;;;;;;;5.43;1.73;;;16.00;92.10;;;;;;5013516;28;20038;-76
2021/08/29 00:37:59;;;;;;;9.07;1.50;;;16.00;92.10;;;;;;5013376;28;20109;-75
2021/08/29 00:40:25;;;;;;;4.57;1.75;;;16.00;92.10;;;;;;5012255;28;20482;-75
2021/08/29 00:42:51;;;;;;;6.95;1.85;;;16.00;92.10;;;;;;5013400;28;20038;-75
2021/08/29 00:45:19;;;;;;;10.60;1.90;;;16.00;92.10;;;;;;5012120;28;20087;-75
2021/08/29 00:47:45;;;;;;;7.95;2.00;;;16.00;92.20;;;;;;5012128;28;20034;-74
2021/08/29 00:50:10;;;;;;;5.07;1.85;;;16.00;92.20;;;;;;4995937;28;20489;-75
2021/08/29 00:52:40;;;;;;;8.10;2.30;;;16.00;92.20;;;;;;5012052;28;20068;-75
2021/08/29 00:55:09;;;;;;;7.68;2.08;;;16.00;92.20;;;;;;5013306;28;20061;-75
2021/08/29 00:57:34;;;;;;;6.03;2.08;;;16.00;92.20;;;;;;5011915;28;20065;-75
2021/08/29 01:00:00;;;;;;;9.68;2.00;;;16.00;92.30;;;;;;5012102;28;20030;-75
2021/08/29 01:02:27;;;;;;;7.53;2.50;;;16.00;92.20;;;;;;5011942;28;20030;-75
2021/08/29 01:05:04;;;;;;;6.88;1.85;;;16.00;92.20;;;;;;5013211;28;20479;-75
2021/08/29 01:07:36;;;;;;;8.35;2.25;;;16.00;92.20;;;;;;5011927;28;20106;-76
2021/08/29 01:10:06;;;;;;;9.20;2.92;;;16.00;92.20;;;;;;5013245;28;20087;-75
2021/08/29 01:12:32;;;;;;;9.57;2.00;;;16.10;92.20;;;;;;5013286;28;20029;-75
2021/08/29 01:15:02;;;;;;;10.50;3.22;;;16.00;92.20;;;;;;5013214;28;20121;-75
2021/08/29 01:17:31;;;;;;;7.72;1.90;;;16.10;92.20;;;;;;5012859;28;20046;-75
2021/08/29 01:20:23;;;;;;;8.02;2.58;;;16.10;92.20;;;;;;5011803;28;20030;-75
2021/08/29 01:22:50;;;;;;;7.95;2.13;;;16.10;92.20;;;;;;5011859;28;20026;-75
2021/08/29 01:25:24;;;;;;;5.70;2.00;;;16.10;92.20;;;;;;5013057;28;20394;-75
2021/08/29 01:27:57;;;;;;;7.65;2.63;;;16.10;92.30;;;;;;5011730;28;20545;-75
2021/08/29 01:30:23;;;;;;;6.28;2.20;;;16.10;92.50;;;;;;5013298;28;20508;-75
2021/08/29 01:32:50;;;;;;;6.47;2.10;;;16.10;92.20;;;;;;4999113;28;20069;-74
2021/08/29 01:35:17;;;;;;;11.55;2.80;;;16.20;92.20;;;;;;5015628;28;20030;-75
2021/08/29 01:37:44;;;;;;;7.85;2.90;;;16.20;92.20;;;;;;5015328;28;20386;-74
2021/08/29 01:40:10;;;;;;;7.97;2.13;;;16.20;92.30;;;;;;5015265;28;20520;-78
2021/08/29 01:42:38;;;;;;;8.63;2.10;;;16.20;92.30;;;;;;5015263;28;20034;-75
2021/08/29 01:45:04;;;;;;;8.27;2.00;;;16.10;92.30;;;;;;5016314;28;20364;-75
2021/08/29 01:47:30;;;;;;;9.27;2.40;;;16.20;92.30;;;;;;5016415;28;20096;-79
2021/08/29 01:49:56;;;;;;;10.35;2.83;;;16.20;92.30;;;;;;4998961;28;20489;-77
2021/08/29 01:52:22;;;;;;;11.85;2.85;;;16.20;92.30;;;;;;5015163;28;20037;-78
2021/08/29 01:54:47;;;;;;;12.77;3.25;;;16.20;92.20;;;;;;5015088;28;20105;-76
2021/08/29 01:57:14;;;;;;;7.85;2.67;;;16.20;92.30;;;;;;5015083;28;20038;-77
2021/08/29 01:59:44;;;;;;;11.85;2.70;;;16.20;92.50;;;;;;5015016;28;20036;-75
2021/08/29 02:02:11;;;;;;;10.73;2.95;;;16.20;92.20;;;;;;5014909;28;20382;-75
2021/08/29 02:04:37;;;;;;;6.88;2.33;;;16.20;92.20;;;;;;5014941;28;20521;-76
2021/08/29 02:07:12;;;;;;;8.10;2.28;;;16.30;92.20;;;;;;5014832;28;20034;-75
2021/08/29 02:09:40;;;;;;;8.27;2.53;;;16.30;92.20;;;;;;5015972;28;20441;-76
2021/08/29 02:12:08;;;;;;;9.68;2.47;;;16.30;92.10;;;;;;5015926;28;20048;-76
2021/08/29 02:14:55;;;;;;;8.95;2.30;;;16.30;92.10;;;;;;5014558;28;20390;-75
2021/08/29 02:17:22;;;;;;;8.13;2.13;;;16.30;92.10;;;;;;5014363;28;20053;-75
2021/08/29 02:19:49;;;;;;;9.00;2.83;;;16.30;92.10;;;;;;5014486;28;20056;-75
2021/08/29 02:22:15;;;;;;;9.82;2.72;;;16.30;92.00;;;;;;4998298;28;20470;-76
2021/08/29 02:24:42;;;;;;;12.18;2.88;;;16.30;92.00;;;;;;5015612;28;20084;-76
2021/08/29 02:27:11;;;;;;;9.40;2.65;;;16.30;92.00;;;;;;5015621;28;20034;-76
2021/08/29 02:29:38;;;;;;;9.65;3.05;;;16.30;92.00;;;;;;5014575;28;20041;-76
2021/08/29 02:32:05;;;;;;;7.10;3.15;;;16.30;91.90;;;;;;5015687;28;20110;-78
2021/08/29 02:34:31;;;;;;;11.57;3.38;;;16.30;91.90;;;;;;5014338;28;20096;-78
2021/08/29 02:37:00;;;;;;;10.60;3.75;;;16.30;91.90;;;;;;5015512;28;20437;-78
2021/08/29 02:39:28;;;;;;;15.82;5.93;;;16.30;91.90;;;;;;5015471;28;20467;-80
2021/08/29 02:41:55;;;;;;;16.88;6.50;;;16.30;91.90;;;;;;5014120;28;20459;-78
2021/08/29 02:44:23;;;;;;;15.60;6.88;;;16.30;91.80;;;;;;5015135;28;20026;-78
2021/08/29 02:46:51;;;;;;;15.90;7.53;;;16.30;91.80;;;;;;5015255;28;20022;-76
2021/08/29 02:49:21;;;;;;;17.98;7.43;;;16.30;91.80;;;;;;5015267;28;20087;-78
2021/08/29 02:51:51;;;;;;;15.05;7.75;;;16.30;91.70;;;;;;5015258;28;20462;-76
2021/08/29 02:54:18;;;;;;;14.68;8.07;;;16.30;91.70;;;;;;5013830;28;20112;-76
2021/08/29 02:56:48;;;;;;;17.42;8.57;;;16.30;91.60;;;;;;5013794;28;20025;-75
2021/08/29 02:59:14;;;;;;;17.45;8.32;;;16.30;91.60;;;;;;5013891;28;20062;-76
2021/08/29 03:01:40;;;;;;;13.50;7.20;;;16.30;91.50;;;;;;5013995;28;20064;-75
2021/08/29 03:04:07;;;;;;;18.00;7.70;;;16.30;91.50;;;;;;5014952;28;20026;-75
2021/08/29 03:06:33;;;;;;;15.25;7.32;;;16.30;91.50;;;;;;5013668;28;20029;-75
2021/08/29 03:08:58;;;;;;;18.48;6.82;;;16.30;91.40;;;;;;5014812;28;20363;-76
2021/08/29 03:11:24;;;;;;;17.38;8.77;;;16.30;91.40;;;;;;5013705;28;20073;-76
2021/08/29 03:13:50;;;;;;;19.00;7.55;;;16.40;91.30;;;;;;5013560;28;20394;-78
2021/08/29 03:16:16;;;;;;;12.00;6.28;;;16.30;91.30;;;;;;5013566;28;20065;-79
2021/08/29 03:18:44;;;;;;;12.77;6.03;;;16.40;91.30;;;;;;5013531;28;20034;-77
2021/08/29 03:21:10;;;;;;;11.98;5.60;;;16.30;91.20;;;;;;5014669;28;20026;-78
2021/08/29 03:23:36;;;;;;;13.48;5.93;;;16.40;91.20;;;;;;5014756;28;20037;-78
2021/08/29 03:26:02;;;;;;;10.55;5.25;;;16.40;91.10;;;;;;5014479;28;20488;-76
2021/08/29 03:28:28;;;;;;;11.30;4.53;;;16.30;91.10;;;;;;5014500;28;20030;-76
2021/08/29 03:30:54;;;;;;;9.63;4.28;;;16.40;91.10;;;;;;5013478;28;20034;-78
2021/08/29 03:33:20;;;;;;;8.32;3.72;;;16.40;91.10;;;;;;5014426;28;20037;-77
2021/08/29 03:35:46;;;;;;;9.23;3.60;;;16.40;91.10;;;;;;5013055;28;20033;-79
2021/08/29 03:38:15;;;;;;;13.55;4.18;;;16.40;91.10;;;;;;5012998;28;20087;-75
2021/08/29 03:40:41;;;;;;;12.52;3.75;;;16.40;91.10;;;;;;5013097;28;20111;-78
2021/08/29 03:43:07;;;;;;;6.55;2.95;;;16.40;91.10;;;;;;4996586;28;20070;-78
2021/08/29 03:45:33;;;;;;;8.73;2.78;;;16.40;91.10;;;;;;4996721;28;20022;-77
2021/08/29 03:47:59;;;;;;;8.60;2.90;;;16.40;91.20;;;;;;5014112;28;20612;-78
2021/08/29 03:50:25;;;;;;;9.27;2.65;;;16.40;91.20;;;;;;5014434;28;20026;-78
2021/08/29 03:52:51;;;;;;;8.13;2.60;;;16.40;91.20;;;;;;4996615;28;20108;-78
2021/08/29 03:55:17;;;;;;;13.80;3.30;;;16.40;91.30;;;;;;5012225;28;20038;-78
2021/08/29 03:57:43;;;;;;;7.55;2.78;;;16.40;91.30;;;;;;5012720;28;20573;-78
2021/08/29 04:00:09;;;;;;;6.10;2.20;;;16.40;91.30;;;;;;5012757;28;20026;-77
2021/08/29 04:02:35;;;;;;;7.85;2.70;;;16.40;91.30;;;;;;5013730;28;20022;-75
2021/08/29 04:05:01;;;;;;;6.10;2.00;;;16.40;91.30;;;;;;5012532;28;20025;-76
2021/08/29 04:07:27;;;;;;;6.20;1.98;;;16.40;91.30;;;;;;5012584;28;20037;-75
2021/08/29 04:09:53;;;;;;;8.38;2.80;;;16.40;91.60;;;;;;5012514;28;20066;-75
2021/08/29 04:12:24;;;;;;;13.02;2.65;;;16.40;91.40;;;;;;5012517;28;20076;-76
2021/08/29 04:14:50;;;;;;;7.55;2.72;;;16.40;91.40;;;;;;5013682;28;20398;-76
2021/08/29 04:17:16;;;;;;;7.95;2.35;;;16.40;91.40;;;;;;5013289;28;20406;-75
2021/08/29 04:19:42;;;;;;;8.43;2.88;;;16.40;91.50;;;;;;4995979;28;20037;-75
2021/08/29 04:22:09;;;;;;;7.75;2.17;;;16.40;91.50;;;;;;5013643;28;20026;-76
2021/08/29 04:24:35;;;;;;;6.97;2.58;;;16.40;91.50;;;;;;5013691;28;20029;-76
2021/08/29 04:27:01;;;;;;;6.97;2.33;;;16.40;91.60;;;;;;4995950;28;20030;-76
2021/08/29 04:29:27;;;;;;;7.47;2.38;;;16.40;91.60;;;;;;4979739;28;20116;-76
2021/08/29 04:31:56;;;;;;;6.78;1.92;;;16.40;91.60;;;;;;5012120;28;20121;-76
2021/08/29 04:34:22;;;;;;;11.77;2.53;;;16.40;91.60;;;;;;5013520;28;20117;-75
2021/08/29 04:36:48;;;;;;;8.30;2.78;;;16.40;91.70;;;;;;5013384;28;20110;-75
2021/08/29 04:39:13;;;;;;;8.27;1.80;;;16.40;91.80;;;;;;4995930;28;20077;-76
2021/08/29 04:41:39;;;;;;;9.95;2.63;;;16.40;91.80;;;;;;4979696;28;20026;-75
2021/08/29 04:44:07;;;;;;;8.02;2.42;;;16.40;91.90;;;;;;5012195;28;20022;-75
2021/08/29 04:46:33;;;;;;;10.70;2.42;;;16.40;91.90;;;;;;5012048;28;20113;-77
2021/08/29 04:48:59;;;;;;;7.30;2.25;;;16.40;91.90;;;;;;5012208;28;20061;-77
2021/08/29 04:51:25;;;;;;;8.77;2.40;;;16.40;91.90;;;;;;5012454;28;20062;-77
2021/08/29 04:53:50;;;;;;;11.85;2.90;;;16.40;91.90;;;;;;5013543;28;20026;-79
2021/08/29 04:56:16;;;;;;;8.95;1.90;;;16.40;92.10;;;;;;5012145;28;20038;-78
2021/08/29 04:58:41;;;;;;;6.75;1.80;;;16.50;92.10;;;;;;5012155;28;20030;-78
2021/08/29 05:01:07;;;;;;;8.77;2.47;;;16.40;92.10;;;;;;5013212;28;20087;-80
2021/08/29 05:03:35;;;;;;;7.68;2.08;;;16.50;92.10;;;;;;4978036;28;20037;-79
2021/08/29 05:06:02;;;;;;;10.52;2.28;;;16.50;92.20;;;;;;5013479;28;20497;-79
2021/08/29 05:08:27;;;;;;;9.77;2.47;;;16.50;92.20;;;;;;5026195;28;20500;-79
2021/08/29 05:10:53;;;;;;;12.98;1.95;;;16.50;92.20;;;;;;5018076;28;20033;-75
2021/08/29 05:13:19;;;;;;;14.02;2.00;;;16.50;92.20;;;;;;5037415;28;20060;-78
2021/08/29 05:15:45;;;;;;;9.07;2.50;;;16.50;92.20;;;;;;4998482;28;20116;-76
2021/08/29 05:18:10;;;;;;;12.25;1.98;;;16.50;92.30;;;;;;5016879;28;20153;-78
2021/08/29 05:20:36;;;;;;;8.88;2.13;;;16.50;92.30;;;;;;4998507;28;20121;-78
2021/08/29 05:23:02;;;;;;;8.07;2.00;;;16.50;92.20;;;;;;5015587;28;20026;-79
2021/08/29 05:25:27;;;;;;;6.95;1.65;;;16.60;92.20;;;;;;5015786;28;20034;-79
2021/08/29 05:27:54;;;;;;;9.77;1.73;;;16.60;92.20;;;;;;5015587;28;20034;-78
2021/08/29 05:30:19;;;;;;;9.07;1.80;;;16.60;92.20;;;;;;5016707;28;20030;-77
2021/08/29 05:32:45;;;;;;;10.68;2.35;;;16.60;92.20;;;;;;5015623;28;20042;-78
2021/08/29 05:35:11;;;;;;;9.07;2.55;;;16.70;92.30;;;;;;5016977;28;20493;-79
2021/08/29 05:37:36;;;;;;;10.45;2.40;;;16.70;92.30;;;;;;5015615;28;20381;-79
2021/08/29 05:40:03;;;;;;;10.23;2.38;;;16.70;92.20;;;;;;4999145;28;20433;-78
2021/08/29 05:42:28;;;;;;;7.65;2.30;;;16.70;92.20;;;;;;4999148;28;20072;-79
2021/08/29 05:44:54;;;;;;;8.75;2.47;;;16.70;92.20;;;;;;5032081;28;20037;-80
2021/08/29 05:47:19;;;;;;;8.93;2.25;;;16.70;92.20;;;;;;5031701;28;20474;-79
2021/08/29 05:49:45;;;;;;;12.00;2.13;;;16.70;92.10;;;;;;5015298;28;20057;-78
2021/08/29 05:52:11;;;;;;;15.80;2.40;;;16.80;92.10;;;;;;5016373;28;20037;-75
2021/08/29 05:54:36;;;;;;;8.30;2.33;;;16.80;92.10;;;;;;5015112;28;20395;-77
2021/08/29 05:57:02;;;;;;;11.50;2.08;;;16.80;92.10;;;;;;5016169;28;20500;-76
2021/08/29 05:59:28;;;;;;;11.48;2.58;;;16.80;92.10;;;;;;5031376;28;20018;-75
2021/08/29 06:01:53;;;;;;;11.27;2.45;;;16.90;92.10;;;;;;5016285;28;20029;-76
2021/08/29 06:04:19;;;;;;;12.57;2.80;;;16.90;92.10;;;;;;5016133;28;20048;-79
2021/08/29 06:06:44;;;;;;;9.27;2.58;;;16.90;92.00;;;;;;5031412;28;20029;-79
2021/08/29 06:09:10;;;;;;;8.35;1.77;;;16.90;92.00;;;;;;5016136;28;20026;-76
2021/08/29 06:11:36;;;;;;;6.93;1.35;;;16.90;92.00;;;;;;5014868;28;20112;-75
2021/08/29 06:14:02;;;;;;;10.02;1.95;;;16.90;91.90;;;;;;5031177;28;20030;-77
2021/08/29 06:16:27;;;;;;;12.50;2.88;;;17.00;92.00;;;;;;5015741;28;20051;-77
2021/08/29 06:18:53;;;;;;;9.10;2.45;;;16.90;92.00;;;;;;5013744;28;20393;-75
2021/08/29 06:21:20;;;;;;;11.88;2.85;;;17.00;92.00;;;;;;5014363;28;20029;-77
2021/08/29 06:23:46;;;;;;;8.55;1.90;;;17.00;92.30;;;;;;5014636;28;20064;-76
2021/08/29 06:26:11;;;;;;;9.82;2.55;;;16.90;92.10;;;;;;5014489;28;20058;-75
2021/08/29 06:28:37;;;;;;;12.70;2.90;;;17.00;92.20;;;;;;5020360;28;20091;-76
2021/08/29 06:31:03;;;;;;;11.35;2.53;;;17.00;92.10;;;;;;5034038;28;20021;-76
2021/08/29 06:33:28;;;;;;;11.30;2.70;;;16.90;92.10;;;;;;5032609;28;20032;-75
2021/08/29 06:35:55;;;;;;;10.52;1.80;;;17.00;92.20;;;;;;5032870;28;20128;-77
2021/08/29 06:38:21;;;;;;;13.20;2.38;;;16.90;92.10;;;;;;5017641;28;20022;-75
2021/08/29 06:40:47;;;;;;;10.82;2.10;;;17.00;92.10;;;;;;5034154;28;20037;-76
2021/08/29 06:43:13;;;;;;;10.23;2.40;;;17.00;92.10;;;;;;5035092;28;20380;-75
2021/08/29 06:45:39;;;;;;;8.40;2.33;;;17.00;92.10;;;;;;5033818;28;20025;-75
2021/08/29 06:48:05;;;;;;;10.18;2.63;;;17.00;92.10;;;;;;5035044;28;20024;-76
2021/08/29 06:50:30;;;;;;;8.95;1.80;;;17.00;92.10;;;;;;5033804;28;20090;-77
2021/08/29 06:52:56;;;;;;;16.10;2.58;;;17.00;92.10;;;;;;5035087;28;20044;-78
2021/08/29 06:55:21;;;;;;;12.27;1.92;;;17.10;92.10;;;;;;5017208;28;20474;-76
2021/08/29 06:57:47;;;;;;;10.32;2.90;;;17.10;92.10;;;;;;5033647;28;20087;-75
2021/08/29 07:00:13;;;;;;;14.48;2.75;;;17.10;92.10;;;;;;5033644;28;20071;-75
2021/08/29 07:02:38;;;;;;;13.90;2.33;;;17.10;92.00;;;;;;5034731;28;20104;-76
2021/08/29 07:05:04;;;;;;;9.95;2.15;;;17.10;92.00;;;;;;5033550;28;20021;-77
2021/08/29 07:07:31;;;;;;;7.90;2.03;;;17.20;91.90;;;;;;5033360;28;20108;-76
2021/08/29 07:09:57;;;;;;;10.63;1.90;;;17.20;91.90;;;;;;5033360;28;20034;-77
2021/08/29 07:12:22;;;;;;;9.43;1.60;;;17.30;91.90;;;;;;5016964;28;20086;-76
2021/08/29 07:14:48;;;;;;;10.13;2.15;;;17.30;91.80;;;;;;5034585;28;20034;-75
2021/08/29 07:17:16;;;;;;;10.48;2.50;;;17.30;91.70;;;;;;5033364;28;20163;-76
2021/08/29 07:19:41;;;;;;;10.40;2.33;;;17.30;91.60;;;;;;5033370;28;20033;-75
2021/08/29 07:22:07;;;;;;;9.00;2.40;;;17.30;91.60;;;;;;5016659;28;20033;-76
2021/08/29 07:24:33;;;;;;;9.82;1.50;;;17.40;91.80;;;;;;5034295;28;20029;-75
2021/08/29 07:26:59;;;;;;;10.07;1.75;;;17.40;91.50;;;;;;5016559;28;20026;-75
2021/08/29 07:29:24;;;;;;;9.90;2.00;;;17.40;91.40;;;;;;5034199;28;20017;-80
2021/08/29 07:31:50;;;;;;;11.90;2.10;;;17.40;91.50;;;;;;5033066;28;20095;-80
2021/08/29 07:34:15;;;;;;;10.65;2.33;;;17.40;91.40;;;;;;5034451;28;20029;-79
2021/08/29 07:36:41;;;;;;;7.57;2.30;;;17.40;91.50;;;;;;5034042;28;20037;-78
2021/08/29 07:39:07;;;;;;;11.07;2.13;;;17.30;91.50;;;;;;5016417;28;20375;-76
2021/08/29 07:41:32;;;;;;;10.07;1.98;;;17.30;91.50;;;;;;5016237;28;20057;-76
2021/08/29 07:43:58;;;;;;;11.25;1.85;;;17.30;91.50;;;;;;5016538;28;20068;-75
2021/08/29 07:46:26;;;;;;;10.43;2.28;;;17.30;91.60;;;;;;5033976;28;20029;-75
2021/08/29 07:48:52;;;;;;;11.32;1.73;;;17.30;91.70;;;;;;5032685;28;20037;-77
2021/08/29 07:51:18;;;;;;;10.40;2.20;;;17.30;91.70;;;;;;5016245;28;20025;-78
2021/08/29 07:53:44;;;;;;;11.35;1.63;;;17.30;91.80;;;;;;5032641;28;20022;-79
2021/08/29 07:56:09;;;;;;;14.07;2.17;;;17.40;91.80;;;;;;5032761;28;20033;-77
2021/08/29 07:58:35;;;;;;;12.20;2.30;;;17.50;91.70;;;;;;5032663;28;20041;-80
2021/08/29 08:01:01;;;;;;;10.02;2.28;;;17.50;91.70;;;;;;5016209;28;20385;-79
2021/08/29 08:03:26;;;;;;;11.73;2.90;;;17.50;91.70;;;;;;5016287;28;20036;-78
2021/08/29 08:05:52;;;;;;;8.23;2.33;;;17.50;91.60;;;;;;5032778;28;20041;-81
2021/08/29 08:08:18;;;;;;;7.22;1.73;;;17.50;91.50;;;;;;5033663;28;20037;-79
2021/08/29 08:10:43;;;;;;;12.73;2.42;;;17.50;91.50;;;;;;5033727;28;20039;-79
2021/08/29 08:13:09;;;;;;;10.77;2.53;;;17.50;91.60;;;;;;5033739;28;20385;-81
2021/08/29 08:15:34;;;;;;;9.85;1.92;;;17.50;91.60;;;;;;5015811;28;20371;-79
2021/08/29 08:18:00;;;;;;;8.88;2.30;;;17.40;91.60;;;;;;5032175;28;20040;-81
2021/08/29 08:20:26;;;;;;;8.43;2.03;;;17.50;91.60;;;;;;5032312;28;20033;-79
2021/08/29 08:22:51;;;;;;;11.13;2.10;;;17.40;91.90;;;;;;5015792;28;20482;-79
2021/08/29 08:25:17;;;;;;;10.18;1.90;;;17.40;91.80;;;;;;5032341;28;20033;-78
2021/08/29 08:27:42;;;;;;;8.68;2.28;;;17.40;91.80;;;;;;5032533;28;20120;-80
2021/08/29 08:30:09;;;;;;;8.70;1.63;;;17.30;92.10;;;;;;5032262;28;20033;-79
2021/08/29 08:32:34;;;;;;;13.45;2.22;;;17.30;91.90;;;;;;5032132;28;20084;-80
2021/08/29 08:35:00;;;;;;;7.57;1.63;;;17.30;92.20;;;;;;5033284;28;20034;-78
2021/08/29 08:37:26;;;;;;;9.75;2.40;;;17.30;92.20;;;;;;5032037;28;20033;-80
2021/08/29 08:39:52;;;;;;;10.45;1.80;;;17.30;92.40;;;;;;5033412;28;20022;-79
2021/08/29 08:42:17;;;;;;;6.63;1.67;;;17.30;92.40;;;;;;5031960;28;20030;-79
2021/08/29 08:44:44;;;;;;;7.65;2.15;;;17.30;92.40;;;;;;5031909;28;20037;-80
2021/08/29 08:47:15;;;;;;;7.72;1.73;;;17.30;92.30;;;;;;5032146;28;20034;-81
2021/08/29 08:49:43;;;;;;;7.93;1.55;;;17.20;92.20;;;;;;5032044;28;20428;-78
2021/08/29 08:52:15;;;;;;;11.00;2.38;;;17.20;92.20;;;;;;5031817;28;20385;-79
2021/08/29 08:54:42;;;;;;;5.05;1.48;;;17.20;92.40;;;;;;5031805;28;20370;-78
2021/08/29 08:57:08;;;;;;;7.60;1.77;;;17.10;92.60;;;;;;5031603;28;20021;-81
2021/08/29 08:59:35;;;;;;;8.68;1.80;;;17.10;92.80;;;;;;5031854;28;20025;-79
2021/08/29 09:02:01;;;;;;;6.65;1.90;;;17.00;92.90;;;;;;5032155;28;20513;-78
2021/08/29 09:04:26;;;;;;;7.10;1.70;;;17.00;93.10;;;;;;5015414;28;20038;-81
2021/08/29 09:06:53;;;;;;;7.68;1.80;;;17.00;93.10;;;;;;5015468;28;20061;-79
2021/08/29 09:09:19;;;;;;;8.55;1.70;;;17.00;93.20;;;;;;5033024;28;20033;-81
2021/08/29 09:11:44;;;;;;;7.55;1.88;;;17.00;93.20;;;;;;5033024;28;20080;-80
2021/08/29 09:14:10;;;;;;;9.63;1.45;;;17.00;93.20;;;;;;5031775;28;20496;-78
2021/08/29 09:16:36;;;;;;;9.02;2.00;;;16.90;93.10;;;;;;5032832;28;20057;-77
2021/08/29 09:19:04;;;;;;;7.50;2.03;;;16.90;93.30;;;;;;5032825;28;20037;-79
2021/08/29 09:21:35;;;;;;;4.10;1.50;;;16.90;93.30;;;;;;5032837;28;20034;-81
2021/08/29 09:24:07;;;;;;;11.52;1.95;;;16.90;93.80;;;;;;5032861;28;20057;-81
2021/08/29 09:26:38;;;;;;;9.85;1.90;;;16.80;93.70;;;;;;5031552;28;20068;-79
2021/08/29 09:29:06;;;;;;;12.15;2.08;;;16.80;93.80;;;;;;5032892;28;20091;-80
2021/08/29 09:31:43;;;;;;;9.73;2.08;;;16.80;94.00;;;;;;5032733;28;20041;-77
2021/08/29 09:34:09;;;;;;;9.88;2.20;;;16.80;94.20;;;;;;5032731;28;20385;-80
2021/08/29 09:36:35;;;;;;;8.55;2.10;;;16.80;94.20;;;;;;5031606;28;20037;-82
2021/08/29 09:39:15;;;;;;;10.35;2.00;;;16.80;94.40;;;;;;5031492;28;20206;-80
2021/08/29 09:41:42;;;;;;;8.90;2.25;;;16.80;94.40;;;;;;5031438;28;20022;-80
2021/08/29 09:44:20;;;;;;;10.07;2.30;;;16.80;94.50;;;;;;5032585;28;20044;-76
2021/08/29 09:47:02;;;;;;;9.13;2.53;;;16.80;94.50;;;;;;5032787;28;20385;-77
2021/08/29 09:49:30;;;;;;;10.85;2.97;;;16.80;94.70;;;;;;5032515;28;20370;-80
2021/08/29 09:51:58;;;;;;;10.90;2.30;;;16.80;94.80;;;;;;5031145;28;20026;-81
2021/08/29 09:54:36;;;;;;;10.07;2.05;;;16.80;94.90;;;;;;5035862;28;20022;-81
2021/08/29 09:57:06;;;;;;;6.68;1.52;;;16.90;95.00;;;;;;5034938;28;20412;-81
2021/08/29 09:59:38;;;;;;;10.77;2.33;;;16.90;94.90;;;;;;5036105;28;20036;-82
2021/08/29 10:02:04;;;;;;;9.63;1.67;;;16.90;95.00;;;;;;5036061;28;20108;-80
2021/08/29 10:04:30;;;;;;;8.95;1.83;;;16.90;95.00;;;;;;5036050;28;20044;-78
2021/08/29 10:06:56;;;;;;;7.60;1.67;;;17.00;95.00;;;;;;5034721;28;20478;-79
2021/08/29 10:09:26;;;;;;;8.73;1.85;;;17.00;95.30;;;;;;5034488;28;20051;-78
2021/08/29 10:11:52;;;;;;;8.98;1.73;;;17.00;95.00;;;;;;5034590;28;20155;-78
2021/08/29 10:14:19;;;;;;;9.63;1.52;;;17.00;95.10;;;;;;5034459;28;20030;-78
2021/08/29 10:16:47;;;;;;;6.25;1.60;;;17.00;95.10;;;;;;5035643;28;20084;-79
2021/08/29 10:19:15;;;;;;;7.28;1.55;;;17.00;95.10;;;;;;5034571;28;20040;-78
2021/08/29 10:21:41;;;;;;;6.15;1.30;;;17.00;95.20;;;;;;5035626;28;20385;-77
2021/08/29 10:24:09;;;;;;;5.10;1.35;;;17.00;95.30;;;;;;5034260;28;20106;-79
2021/08/29 10:26:39;;;;;;;7.88;1.98;;;17.10;95.20;;;;;;5034556;28;20041;-82
2021/08/29 10:29:07;;;;;;;4.50;1.35;;;17.10;95.20;;;;;;5034106;28;20039;-79
2021/08/29 10:31:41;;;;;;;8.05;1.65;;;17.10;95.20;;;;;;5035547;28;20109;-77
2021/08/29 10:34:07;;;;;;;7.50;1.48;;;17.10;95.30;;;;;;5035289;28;20021;-79
2021/08/29 10:36:35;;;;;;;7.20;1.63;;;17.20;95.20;;;;;;5034084;28;20551;-80
2021/08/29 10:39:02;;;;;;;6.97;1.20;;;17.20;95.30;;;;;;5035260;28;20057;-78
2021/08/29 10:41:29;;;;;;;7.30;1.67;;;17.20;95.20;;;;;;5035473;28;20026;-80
2021/08/29 10:43:54;;;;;;;9.85;1.50;;;17.20;95.30;;;;;;5034143;28;20032;-75
2021/08/29 10:46:20;;;;;;;8.38;1.63;;;17.30;95.30;;;;;;5034094;28;20025;-80
2021/08/29 10:48:50;;;;;;;6.13;1.70;;;17.30;95.20;;;;;;5035342;28;20028;-80
2021/08/29 10:51:18;;;;;;;10.65;1.65;;;17.30;95.20;;;;;;5034026;28;20072;-80
2021/08/29 10:53:52;;;;;;;7.38;1.60;;;17.30;95.30;;;;;;5033838;28;20021;-80
2021/08/29 10:56:18;;;;;;;15.23;2.58;;;17.30;95.20;;;;;;5035118;28;20025;-81
2021/08/29 10:58:48;;;;;;;7.25;1.50;;;17.30;95.20;;;;;;5034879;28;20044;-79
2021/08/29 11:01:32;;;;;;;7.97;1.85;;;17.30;95.20;;;;;;5034883;28;20527;-81
2021/08/29 11:03:58;;;;;;;8.32;1.70;;;17.30;95.20;;;;;;5034422;28;20148;-80
2021/08/29 11:06:46;;;;;;;5.68;1.27;;;17.40;95.30;;;;;;5033576;28;20105;-79
2021/08/29 11:12:01;;;;;;;4.35;1.05;;;17.30;95.20;;;;;;5034619;28;20053;-79
2021/08/29 11:14:44;;;;;;;4.50;0.93;;;17.40;95.20;;;;;;5034714;28;20095;-80
2021/08/29 11:17:15;;;;;;;5.50;1.20;;;17.50;95.20;;;;;;5034410;28;20046;-80
2021/08/29 11:19:43;;;;;;;6.45;1.08;;;17.50;95.30;;;;;;5033484;28;20036;-79
2021/08/29 11:22:08;;;;;;;4.72;1.10;;;17.60;95.20;;;;;;5033359;28;20080;-78
2021/08/29 11:24:56;;;;;;;2.28;0.88;;;17.60;95.20;;;;;;5033116;28;20026;-77
2021/08/29 11:27:33;;;;;;;2.60;0.90;;;17.60;95.20;;;;;;5034662;28;20095;-79
2021/08/29 11:30:00;;;;;;;5.18;0.90;;;17.70;95.10;;;;;;5034418;28;20036;-80
2021/08/29 11:32:39;;;;;;;5.43;0.77;;;17.70;95.10;;;;;;5034382;28;20048;-82
2021/08/29 11:35:09;;;;;;;2.60;0.63;;;17.70;95.00;;;;;;5034334;28;20032;-81
2021/08/29 11:37:35;;;;;;;2.60;0.90;;;17.70;95.00;;;;;;5032811;28;20323;-79
2021/08/29 11:40:03;;;;;;;3.05;0.98;;;17.70;95.00;;;;;;5034109;28;20036;-81
2021/08/29 11:42:29;;;;;;;3.08;0.80;;;17.80;94.90;;;;;;5032832;28;20026;-80
2021/08/29 11:44:56;;;;;;;2.70;0.85;;;17.80;94.90;;;;;;5032783;28;20029;-80
2021/08/29 11:47:35;;;;;;;2.58;0.80;;;17.90;94.90;;;;;;5016429;28;20030;-80
2021/08/29 11:50:04;;;;;;;4.43;1.15;;;17.90;94.80;;;;;;5032807;28;20032;-81
2021/08/29 11:52:32;;;;;;;5.20;0.90;;;18.00;94.70;;;;;;5032844;28;20089;-79
2021/08/29 11:55:05;;;;;;;5.40;1.45;;;18.00;94.90;;;;;;5032698;28;20075;-81
2021/08/29 11:57:31;;;;;;;3.42;1.02;;;18.00;94.70;;;;;;5033425;28;20485;-79
2021/08/29 12:00:07;;;;;;;4.10;1.23;;;18.00;94.70;;;;;;5032335;28;20076;-79
2021/08/29 12:02:37;;;;;;;4.38;1.05;;;18.00;94.60;;;;;;5033597;28;20438;-79
2021/08/29 12:05:08;;;;;;;4.68;1.02;;;18.00;94.70;;;;;;5033693;28;20029;-79
2021/08/29 12:07:37;;;;;;;4.15;1.30;;;18.00;94.70;;;;;;5015808;28;20036;-80
2021/08/29 12:10:04;;;;;;;4.50;1.00;;;18.00;94.70;;;;;;5015648;28;20390;-79
2021/08/29 12:12:30;;;;;;;4.40;1.20;;;18.00;94.70;;;;;;5033344;28;20363;-81
2021/08/29 12:14:57;;;;;;;4.82;1.00;;;18.10;94.70;;;;;;5032018;28;20036;-81
2021/08/29 12:17:24;;;;;;;2.40;0.93;;;18.20;94.80;;;;;;5015565;28;20140;-79
2021/08/29 12:19:51;;;;;;;3.67;1.10;;;18.30;94.70;;;;;;5032288;28;20056;-79
2021/08/29 12:22:17;;;;;;;1.80;0.77;;;18.40;94.70;;;;;;5015700;28;20025;-80
2021/08/29 12:24:43;;;;;;;2.97;1.00;;;18.50;94.60;;;;;;5032294;28;20033;-79
2021/08/29 12:27:14;;;;;;;3.42;1.10;;;18.60;94.50;;;;;;5032224;28;20033;-78
2021/08/29 12:29:51;;;;;;;5.07;1.65;;;18.60;94.30;;;;;;5031923;28;20018;-79
2021/08/29 12:32:28;;;;;;;7.82;1.88;;;18.60;94.20;;;;;;5031928;28;20029;-79
2021/08/29 12:35:11;;;;;;;7.00;1.80;;;18.60;94.30;;;;;;5033345;28;20022;-79
2021/08/29 12:37:46;;;;;;;7.20;1.97;;;18.60;94.00;;;;;;5033307;28;20037;-79
2021/08/29 12:40:16;;;;;;;3.70;1.35;;;18.60;94.00;;;;;;5032071;28;20036;-79
2021/08/29 12:42:44;;;;;;;4.57;1.80;;;18.70;94.00;;;;;;5031965;28;20021;-79
2021/08/29 12:45:18;;;;;;;3.92;1.50;;;18.70;94.00;;;;;;5033167;28;20104;-79
2021/08/29 12:47:45;;;;;;;5.25;2.03;;;18.80;94.00;;;;;;5033080;28;20032;-78